createdAt,value
2022-12-22T00:02:00.300Z,100617.75
2022-12-22T00:04:45.457Z,100610.72
2022-12-22T00:07:30.419Z,100609.69
2022-12-22T00:10:15.551Z,100611.22
2022-12-22T00:13:00.268Z,100601.91
2022-12-22T00:15:46.906Z,100597.72
2022-12-22T00:18:33.932Z,100598.22
2022-12-22T00:21:20.427Z,100595.63
2022-12-22T00:24:05.668Z,100594.84
2022-12-22T00:26:52.782Z,100587.06
2022-12-22T00:29:38.893Z,100588.63
2022-12-22T00:32:24.709Z,100590.41
2022-12-22T00:35:10.808Z,100590.16
2022-12-22T00:37:56.008Z,100579.47
2022-12-22T00:40:45.901Z,100571.19
2022-12-22T00:43:31.719Z,100566.47
2022-12-22T00:46:18.673Z,100550.88
2022-12-22T00:49:04.016Z,100551.91
2022-12-22T00:51:49.699Z,100559.44
2022-12-22T00:54:35.778Z,100557.09
2022-12-22T00:57:21.301Z,100557.91
2022-12-22T01:00:08.894Z,100549.78
2022-12-22T01:02:54.112Z,100544.88
2022-12-22T01:05:39.082Z,100544.31
2022-12-22T01:08:24.489Z,100539.38
2022-12-22T01:11:09.610Z,100534.19
2022-12-22T01:13:56.822Z,100532.88
2022-12-22T01:16:41.796Z,100529.50
2022-12-22T01:19:26.708Z,100528.44
2022-12-22T01:22:11.569Z,100516.47
2022-12-22T01:24:56.673Z,100523.25
2022-12-22T01:27:41.642Z,100525.56
2022-12-22T01:30:27.288Z,100521.16
2022-12-22T01:33:12.197Z,100514.88
2022-12-22T01:35:57.077Z,100520.06
2022-12-22T01:38:41.729Z,100515.66
2022-12-22T01:41:31.148Z,100521.66
2022-12-22T01:44:16.213Z,100516.94
2022-12-22T01:47:03.660Z,100518.47
2022-12-22T01:49:59.689Z,100513.28
2022-12-22T01:52:51.208Z,100514.06
2022-12-22T01:55:39.643Z,100510.66
2022-12-22T01:58:38.813Z,100502.88
2022-12-22T02:01:24.097Z,100503.66
2022-12-22T02:04:09.226Z,100494.03
2022-12-22T02:07:00.487Z,100489.31
2022-12-22T02:10:10.601Z,100485.66
2022-12-22T02:13:25.297Z,100493.44
2022-12-22T02:16:19.181Z,100486.16
2022-12-22T02:19:17.862Z,100482.78
2022-12-22T02:22:30.759Z,100475.72
2022-12-22T02:25:26.563Z,100475.47
2022-12-22T02:28:13.702Z,100476.22
2022-12-22T02:31:00.604Z,100476.53
2022-12-22T02:33:45.815Z,100465.31
2022-12-22T02:36:40.943Z,100472.09
2022-12-22T02:39:41.093Z,100465.06
2022-12-22T02:42:49.995Z,100460.91
2022-12-22T02:45:53.591Z,100466.13
2022-12-22T02:48:49.037Z,100449.72
2022-12-22T02:51:40.029Z,100454.41
2022-12-22T02:54:26.298Z,100458.59
2022-12-22T02:57:11.377Z,100450.00
2022-12-22T02:59:56.321Z,100452.63
2022-12-22T03:02:41.666Z,100442.19
2022-12-22T03:05:26.855Z,100437.75
2022-12-22T03:08:12.688Z,100441.41
2022-12-22T03:10:57.572Z,100436.19
2022-12-22T03:13:42.732Z,100436.19
2022-12-22T03:16:28.135Z,100434.41
2022-12-22T03:19:13.274Z,100431.00
2022-12-22T03:21:58.856Z,100429.97
2022-12-22T03:24:43.744Z,100422.16
2022-12-22T03:27:10.801Z,100416.44
2022-12-22T03:29:37.202Z,100411.75
2022-12-22T03:32:04.042Z,100405.78
2022-12-22T03:34:30.487Z,100410.41
2022-12-22T03:36:56.929Z,100397.97
2022-12-22T03:39:23.375Z,100400.84
2022-12-22T03:42:08.568Z,100399.28
2022-12-22T03:44:53.664Z,100399.78
2022-12-22T03:47:20.167Z,100401.06
2022-12-22T03:49:46.601Z,100401.34
2022-12-22T03:52:13.050Z,100402.59
2022-12-22T03:54:39.437Z,100394.03
2022-12-22T03:57:05.977Z,100400.00
2022-12-22T03:59:32.481Z,100387.75
2022-12-22T04:01:59.083Z,100394.03
2022-12-22T04:04:26.517Z,100394.78
2022-12-22T04:06:54.059Z,100397.13
2022-12-22T04:09:22.411Z,100394.03
2022-12-22T04:12:07.571Z,100394.78
2022-12-22T04:14:34.988Z,100394.03
2022-12-22T04:17:06.660Z,100390.34
2022-12-22T04:19:33.666Z,100394.03
2022-12-22T04:22:00.476Z,100396.63
2022-12-22T04:24:27.184Z,100387.75
2022-12-22T04:26:53.719Z,100386.97
2022-12-22T04:29:20.195Z,100393.75
2022-12-22T04:31:46.731Z,100400.00
2022-12-22T04:34:13.203Z,100404.44
2022-12-22T04:36:39.713Z,100405.19
2022-12-22T04:39:06.139Z,100406.25
2022-12-22T04:41:32.615Z,100415.88
2022-12-22T04:43:59.034Z,100411.75
2022-12-22T04:46:25.747Z,100417.72
2022-12-22T04:48:57.858Z,100412.78
2022-12-22T04:51:26.832Z,100417.72
2022-12-22T04:53:53.269Z,100422.91
2022-12-22T04:56:19.830Z,100413.84
2022-12-22T04:58:46.438Z,100403.94
2022-12-22T05:01:16.239Z,100405.47
2022-12-22T05:03:43.032Z,100404.44
2022-12-22T05:06:10.609Z,100403.66
2022-12-22T05:08:37.585Z,100408.56
2022-12-22T05:11:04.233Z,100403.66
2022-12-22T05:13:31.902Z,100413.78
2022-12-22T05:16:07.222Z,100417.94
2022-12-22T05:18:35.261Z,100403.38
2022-12-22T05:21:07.892Z,100409.38
2022-12-22T05:23:36.733Z,100396.63
2022-12-22T05:26:03.746Z,100413.78
2022-12-22T05:28:30.290Z,100418.97
2022-12-22T05:30:56.818Z,100414.84
2022-12-22T05:33:23.481Z,100423.69
2022-12-22T05:35:49.920Z,100422.16
2022-12-22T05:38:16.406Z,100424.00
2022-12-22T05:40:42.898Z,100425.78
2022-12-22T05:43:10.197Z,100439.31
2022-12-22T05:45:36.799Z,100444.22
2022-12-22T05:48:03.361Z,100440.09
2022-12-22T05:50:29.853Z,100451.28
2022-12-22T05:52:56.290Z,100451.28
2022-12-22T05:55:22.832Z,100460.13
2022-12-22T05:57:49.241Z,100461.69
2022-12-22T06:00:16.957Z,100467.38
2022-12-22T06:02:44.222Z,100464.28
2022-12-22T06:05:12.159Z,100464.56
2022-12-22T06:07:38.858Z,100463.22
2022-12-22T06:10:12.006Z,100469.22
2022-12-22T06:12:40.223Z,100472.09
2022-12-22T06:15:07.820Z,100469.22
2022-12-22T06:17:37.850Z,100446.84
2022-12-22T06:20:09.205Z,100453.38
2022-12-22T06:22:35.821Z,100453.16
2022-12-22T06:25:02.276Z,100443.84
2022-12-22T06:27:28.764Z,100445.69
2022-12-22T06:29:55.198Z,100439.00
2022-12-22T06:32:21.769Z,100454.63
2022-12-22T06:34:48.362Z,100463.78
2022-12-22T06:37:15.258Z,100465.88
2022-12-22T06:39:41.778Z,100468.22
2022-12-22T06:42:28.560Z,100472.34
2022-12-22T06:44:55.528Z,100475.53
2022-12-22T06:47:22.218Z,100482.81
2022-12-22T06:49:48.730Z,100486.47
2022-12-22T06:52:15.209Z,100496.88
2022-12-22T06:54:41.699Z,100500.03
2022-12-22T06:57:08.829Z,100506.22
2022-12-22T06:59:35.247Z,100510.63
2022-12-22T07:02:01.999Z,100528.06
2022-12-22T07:04:29.872Z,100516.13
2022-12-22T07:06:56.559Z,100530.44
2022-12-22T07:09:23.139Z,100530.50
2022-12-22T07:11:49.657Z,100541.72
2022-12-22T07:14:16.067Z,100556.84
2022-12-22T07:16:42.565Z,100550.84
2022-12-22T07:19:09.122Z,100547.47
2022-12-22T07:21:35.593Z,100557.09
2022-12-22T07:24:02.090Z,100574.53
2022-12-22T07:26:28.587Z,100567.25
2022-12-22T07:28:55.059Z,100563.66
2022-12-22T07:31:21.957Z,100556.88
2022-12-22T07:33:48.446Z,100555.09
2022-12-22T07:36:17.808Z,100564.72
2022-12-22T07:38:46.680Z,100572.78
2022-12-22T07:41:34.961Z,100570.97
2022-12-22T07:44:03.261Z,100577.22
2022-12-22T07:46:32.132Z,100579.31
2022-12-22T07:49:17.189Z,100579.84
2022-12-22T07:51:44.287Z,100593.91
2022-12-22T07:54:14.033Z,100591.81
2022-12-22T07:56:40.652Z,100589.75
2022-12-22T07:59:08.225Z,100601.47
2022-12-22T08:01:35.050Z,100597.31
2022-12-22T08:04:01.678Z,100604.06
2022-12-22T08:06:28.527Z,100613.69
2022-12-22T08:08:55.274Z,100608.50
2022-12-22T08:11:21.804Z,100617.34
2022-12-22T08:13:49.807Z,100614.25
2022-12-22T08:16:17.934Z,100616.84
2022-12-22T08:18:44.549Z,100623.63
2022-12-22T08:21:11.121Z,100625.72
2022-12-22T08:23:37.890Z,100631.19
2022-12-22T08:26:28.486Z,100628.31
2022-12-22T08:29:08.693Z,100626.53
2022-12-22T08:31:35.481Z,100634.38
2022-12-22T08:34:04.478Z,100642.94
2022-12-22T08:36:36.819Z,100656.44
2022-12-22T08:39:04.206Z,100653.38
2022-12-22T08:41:49.303Z,100668.19
2022-12-22T08:44:16.986Z,100665.88
2022-12-22T08:46:43.471Z,100671.84
2022-12-22T08:49:10.046Z,100674.72
2022-12-22T08:51:36.538Z,100679.66
2022-12-22T08:54:05.636Z,100687.97
2022-12-22T08:56:32.709Z,100693.19
2022-12-22T08:58:59.278Z,100704.09
2022-12-22T09:01:25.807Z,100705.66
2022-12-22T09:03:54.161Z,100714.72
2022-12-22T09:06:26.989Z,100706.94
2022-12-22T09:08:59.076Z,100706.94
2022-12-22T09:11:26.853Z,100709.00
2022-12-22T09:13:55.275Z,100716.53
2022-12-22T09:16:23.147Z,100713.69
2022-12-22T09:18:50.152Z,100729.78
2022-12-22T09:21:17.095Z,100726.66
2022-12-22T09:23:43.962Z,100730.81
2022-12-22T09:26:12.641Z,100744.56
2022-12-22T09:28:42.616Z,100739.66
2022-12-22T09:31:13.894Z,100740.16
2022-12-22T09:33:40.327Z,100745.09
2022-12-22T09:36:12.528Z,100749.00
2022-12-22T09:38:40.303Z,100750.03
2022-12-22T09:41:09.188Z,100736.28
2022-12-22T09:43:36.003Z,100726.91
2022-12-22T09:46:02.925Z,100738.06
2022-12-22T09:48:37.173Z,100741.19
2022-12-22T09:51:05.080Z,100751.59
2022-12-22T09:53:32.253Z,100755.22
2022-12-22T09:55:58.755Z,100748.97
2022-12-22T09:58:29.664Z,100754.41
2022-12-22T10:01:12.347Z,100757.25
2022-12-22T10:03:56.535Z,100764.50
2022-12-22T10:06:34.688Z,100767.63
2022-12-22T10:12:18.705Z,100773.84
2022-12-22T10:14:48.137Z,100765.50
2022-12-22T10:17:14.474Z,100770.41
2022-12-22T10:19:41.057Z,100769.88
2022-12-22T10:22:30.422Z,100761.25
2022-12-22T10:24:58.036Z,100757.09
2022-12-22T10:27:29.714Z,100765.41
2022-12-22T10:30:27.132Z,100767.50
2022-12-22T10:33:03.621Z,100775.03
2022-12-22T10:35:56.132Z,100765.41
2022-12-22T10:38:32.722Z,100766.47
2022-12-22T10:41:14.562Z,100771.63
2022-12-22T10:43:50.305Z,100778.41
2022-12-22T10:46:17.639Z,100780.19
2022-12-22T10:48:44.357Z,100786.19
2022-12-22T10:51:14.453Z,100786.19
2022-12-22T10:53:51.468Z,100784.63
2022-12-22T10:56:23.613Z,100787.72
2022-12-22T10:59:16.071Z,100780.69
2022-12-22T11:01:42.815Z,100785.13
2022-12-22T11:04:26.789Z,100782.78
2022-12-22T11:06:54.928Z,100782.28
2022-12-22T11:09:33.632Z,100777.13
2022-12-22T11:12:38.525Z,100778.41
2022-12-22T11:15:04.912Z,100783.59
2022-12-22T11:18:02.445Z,100792.44
2022-12-22T11:20:44.713Z,100794.00
2022-12-22T11:23:35.255Z,100794.25
2022-12-22T11:26:13.715Z,100797.38
2022-12-22T11:29:12.278Z,100793.75
2022-12-22T11:31:43.612Z,100798.19
2022-12-22T11:34:50.444Z,100797.09
2022-12-22T11:37:29.879Z,100801.00
2022-12-22T11:40:20.981Z,100800.72
2022-12-22T11:43:01.868Z,100799.66
2022-12-22T11:45:46.986Z,100792.38
2022-12-22T11:48:36.464Z,100795.75
2022-12-22T11:51:26.962Z,100796.25
2022-12-22T11:54:31.008Z,100794.66
2022-12-22T11:57:26.718Z,100792.06
2022-12-22T12:00:13.218Z,100787.06
2022-12-22T12:02:51.463Z,100781.59
2022-12-22T12:05:36.900Z,100777.94
2022-12-22T12:08:12.091Z,100781.09
2022-12-22T12:10:48.385Z,100784.72
2022-12-22T12:13:37.385Z,100785.41
2022-12-22T12:16:25.984Z,100790.31
2022-12-22T12:19:28.287Z,100798.41
2022-12-22T12:22:00.096Z,100793.19
2022-12-22T12:24:41.441Z,100787.50
2022-12-22T12:27:35.719Z,100786.69
2022-12-22T12:33:27.683Z,100780.72
2022-12-22T12:36:15.131Z,100792.69
2022-12-22T12:39:19.323Z,100788.25
2022-12-22T12:42:10.404Z,100788.53
2022-12-22T12:44:38.476Z,100784.41
2022-12-22T12:47:23.321Z,100782.44
2022-12-22T12:49:59.638Z,100769.47
2022-12-22T12:52:40.987Z,100768.19
2022-12-22T12:55:32.730Z,100777.59
2022-12-22T12:58:03.777Z,100771.91
2022-12-22T13:00:33.201Z,100787.56
2022-12-22T13:03:24.882Z,100789.69
2022-12-22T13:05:59.996Z,100806.84
2022-12-22T13:08:31.273Z,100799.84
2022-12-22T13:10:57.768Z,100808.69
2022-12-22T13:13:26.695Z,100813.88
2022-12-22T13:16:04.757Z,100812.59
2022-12-22T13:18:34.101Z,100818.84
2022-12-22T13:21:34.269Z,100814.69
2022-12-22T13:24:25.878Z,100821.97
2022-12-22T13:26:55.589Z,100814.41
2022-12-22T13:29:22.014Z,100827.69
2022-12-22T13:31:53.681Z,100828.44
2022-12-22T13:35:28.458Z,100824.81
2022-12-22T13:37:41.648Z,100815.19
2022-12-22T13:40:12.329Z,100813.66
2022-12-22T13:42:46.062Z,100803.00
2022-12-22T13:45:24.142Z,100807.91
2022-12-22T13:47:51.222Z,100794.16
2022-12-22T13:50:21.488Z,100798.34
2022-12-22T13:52:49.339Z,100791.03
2022-12-22T13:55:21.022Z,100795.72
2022-12-22T13:57:48.605Z,100785.88
2022-12-22T14:00:26.728Z,100778.84
2022-12-22T14:02:53.347Z,100780.66
2022-12-22T14:05:20.937Z,100777.78
2022-12-22T14:08:06.386Z,100769.50
2022-12-22T14:10:41.586Z,100767.66
2022-12-22T14:13:15.434Z,100754.41
2022-12-22T14:15:43.826Z,100752.59
2022-12-22T14:18:16.565Z,100750.00
2022-12-22T14:20:46.619Z,100746.63
2022-12-22T14:23:20.344Z,100749.22
2022-12-22T14:25:48.507Z,100744.03
2022-12-22T14:28:43.222Z,100747.41
2022-12-22T14:31:14.059Z,100740.13
2022-12-22T14:33:51.404Z,100745.31
2022-12-22T14:36:23.940Z,100737.53
2022-12-22T14:38:53.380Z,100737.53
2022-12-22T14:41:42.013Z,100742.72
2022-12-22T14:44:22.987Z,100735.69
2022-12-22T14:47:07.070Z,100736.47
2022-12-22T14:49:35.441Z,100722.44
2022-12-22T14:52:08.337Z,100729.19
2022-12-22T14:54:35.185Z,100715.69
2022-12-22T14:57:16.240Z,100717.25
2022-12-22T15:00:03.771Z,100711.00
2022-12-22T15:02:39.216Z,100712.56
2022-12-22T15:05:15.905Z,100708.91
2022-12-22T15:10:39.924Z,100706.06
2022-12-22T15:13:12.423Z,100703.72
2022-12-22T15:15:38.980Z,100705.56
2022-12-22T15:18:05.916Z,100704.78
2022-12-22T15:20:38.950Z,100707.38
2022-12-22T15:23:14.676Z,100693.34
2022-12-22T15:25:41.315Z,100702.19
2022-12-22T15:28:07.839Z,100698.53
2022-12-22T15:30:34.648Z,100704.25
2022-12-22T15:33:01.354Z,100696.19
2022-12-22T15:35:33.522Z,100698.78
2022-12-22T15:38:00.502Z,100686.56
2022-12-22T15:40:28.295Z,100682.16
2022-12-22T15:42:54.772Z,100681.09
2022-12-22T15:45:22.648Z,100681.38
2022-12-22T15:47:52.417Z,100673.84
2022-12-22T15:50:28.586Z,100673.34
2022-12-22T15:52:59.831Z,100674.13
2022-12-22T15:55:27.151Z,100675.66
2022-12-22T15:57:57.786Z,100677.50
2022-12-22T16:00:25.429Z,100682.69
2022-12-22T16:02:52.112Z,100676.22
2022-12-22T16:05:19.116Z,100678.81
2022-12-22T16:07:46.041Z,100674.38
2022-12-22T16:10:23.161Z,100669.94
2022-12-22T16:12:54.619Z,100659.56
2022-12-22T16:15:22.074Z,100650.75
2022-12-22T16:17:48.587Z,100652.81
2022-12-22T16:20:15.122Z,100646.06
2022-12-22T16:22:42.467Z,100638.78
2022-12-22T16:25:16.659Z,100633.59
2022-12-22T16:27:43.282Z,100635.66
2022-12-22T16:30:18.566Z,100622.69
2022-12-22T16:32:45.966Z,100614.13
2022-12-22T16:35:16.379Z,100608.66
2022-12-22T16:37:43.063Z,100605.28
2022-12-22T16:40:10.158Z,100596.69
2022-12-22T16:45:25.827Z,100594.91
2022-12-22T16:47:53.432Z,100598.00
2022-12-22T16:50:32.171Z,100590.47
2022-12-22T16:53:05.807Z,100578.00
2022-12-22T16:55:33.423Z,100576.94
2022-12-22T16:57:59.876Z,100577.22
2022-12-22T17:00:29.776Z,100573.56
2022-12-22T17:03:01.080Z,100569.94
2022-12-22T17:05:44.049Z,100575.13
2022-12-22T17:08:22.918Z,100573.03
2022-12-22T17:10:50.014Z,100563.41
2022-12-22T17:13:17.213Z,100570.44
2022-12-22T17:15:43.635Z,100565.75
2022-12-22T17:18:18.479Z,100556.91
2022-12-22T17:20:50.997Z,100560.31
2022-12-22T17:23:31.668Z,100559.25
2022-12-22T17:26:00.729Z,100546.25
2022-12-22T17:28:28.057Z,100541.06
2022-12-22T17:30:54.670Z,100538.19
2022-12-22T17:33:21.238Z,100530.91
2022-12-22T17:35:47.917Z,100526.47
2022-12-22T17:38:16.509Z,100527.53
2022-12-22T17:40:43.646Z,100512.44
2022-12-22T17:43:15.492Z,100516.59
2022-12-22T17:45:42.940Z,100508.78
2022-12-22T17:48:09.481Z,100500.22
2022-12-22T17:50:36.206Z,100509.31
2022-12-22T17:53:04.210Z,100507.75
2022-12-22T17:56:06.566Z,100502.00
2022-12-22T17:58:18.034Z,100502.00
2022-12-22T18:00:44.717Z,100486.41
2022-12-22T18:03:15.568Z,100493.94
2022-12-22T18:05:47.100Z,100492.63
2022-12-22T18:08:17.277Z,100491.59
2022-12-22T18:10:44.522Z,100475.72
2022-12-22T18:13:19.512Z,100481.69
2022-12-22T18:15:46.149Z,100471.31
2022-12-22T18:18:18.020Z,100469.22
2022-12-22T18:20:46.890Z,100459.59
2022-12-22T18:23:33.800Z,100459.31
2022-12-22T18:26:00.677Z,100451.53
2022-12-22T18:28:27.134Z,100451.22
2022-12-22T18:30:53.598Z,100448.63
2022-12-22T18:33:21.205Z,100446.56
2022-12-22T18:35:47.664Z,100432.50
2022-12-22T18:38:25.963Z,100436.94
2022-12-22T18:40:52.660Z,100443.41
2022-12-22T18:43:19.101Z,100443.13
2022-12-22T18:45:45.622Z,100436.09
2022-12-22T18:48:12.013Z,100432.72
2022-12-22T18:50:39.492Z,100433.25
2022-12-22T18:53:28.622Z,100423.88
2022-12-22T18:55:55.957Z,100432.16
2022-12-22T18:58:23.046Z,100429.56
2022-12-22T19:00:51.183Z,100424.09
2022-12-22T19:03:22.541Z,100422.78
2022-12-22T19:05:49.499Z,100425.88
2022-12-22T19:08:22.395Z,100428.97
2022-12-22T19:10:55.134Z,100423.25
2022-12-22T19:13:32.169Z,100428.44
2022-12-22T19:15:59.267Z,100420.38
2022-12-22T19:18:27.541Z,100409.69
2022-12-22T19:20:55.798Z,100419.81
2022-12-22T19:23:24.283Z,100422.16
2022-12-22T19:25:54.411Z,100421.09
2022-12-22T19:28:34.706Z,100417.44
2022-12-22T19:31:01.309Z,100417.16
2022-12-22T19:33:41.540Z,100414.31
2022-12-22T19:36:16.237Z,100405.44
2022-12-22T19:38:49.951Z,100402.84
2022-12-22T19:41:26.351Z,100411.63
2022-12-22T19:43:53.007Z,100413.97
2022-12-22T19:46:19.663Z,100419.16
2022-12-22T19:48:47.348Z,100415.22
2022-12-22T19:51:17.638Z,100416.50
2022-12-22T19:53:44.436Z,100418.28
2022-12-22T19:56:29.690Z,100418.00
2022-12-22T19:58:57.972Z,100419.78
2022-12-22T20:01:24.442Z,100420.28
2022-12-22T20:03:50.983Z,100413.47
2022-12-22T20:06:17.744Z,100407.44
2022-12-22T20:08:44.778Z,100412.59
2022-12-22T20:11:16.979Z,100419.81
2022-12-22T20:13:44.377Z,100414.84
2022-12-22T20:16:15.700Z,100415.34
2022-12-22T20:18:43.190Z,100411.13
2022-12-22T20:21:27.942Z,100409.00
2022-12-22T20:23:56.722Z,100411.84
2022-12-22T20:26:25.221Z,100405.56
2022-12-22T20:28:52.544Z,100408.38
2022-12-22T20:31:21.847Z,100412.56
2022-12-22T20:33:48.926Z,100410.94
2022-12-22T20:36:21.723Z,100415.56
2022-12-22T20:38:49.851Z,100421.28
2022-12-22T20:41:16.535Z,100416.84
2022-12-22T20:43:43.103Z,100419.69
2022-12-22T20:46:22.566Z,100416.53
2022-12-22T20:48:56.107Z,100412.31
2022-12-22T20:51:24.661Z,100411.47
2022-12-22T20:53:52.442Z,100405.22
2022-12-22T20:56:38.218Z,100406.75
2022-12-22T20:59:22.833Z,100408.31
2022-12-22T21:01:52.257Z,100414.00
2022-12-22T21:04:19.411Z,100423.34
2022-12-22T21:06:49.726Z,100423.34
2022-12-22T21:09:17.460Z,100420.47
2022-12-22T21:11:44.408Z,100418.38
2022-12-22T21:14:11.803Z,100420.41
2022-12-22T21:16:39.082Z,100413.66
2022-12-22T21:19:05.837Z,100411.53
2022-12-22T21:21:32.520Z,100416.75
2022-12-22T21:23:58.988Z,100414.91
2022-12-22T21:26:34.987Z,100418.00
2022-12-22T21:29:04.896Z,100416.19
2022-12-22T21:31:31.456Z,100421.91
2022-12-22T21:33:57.968Z,100425.53
2022-12-22T21:36:27.136Z,100427.59
2022-12-22T21:39:03.555Z,100432.81
2022-12-22T21:41:48.614Z,100432.81
2022-12-22T21:44:15.095Z,100421.59
2022-12-22T21:46:46.699Z,100425.00
2022-12-22T21:49:24.627Z,100420.81
2022-12-22T21:51:52.791Z,100420.53
2022-12-22T21:54:20.766Z,100421.81
2022-12-22T21:56:48.480Z,100414.56
2022-12-22T21:59:15.330Z,100422.09
2022-12-22T22:01:43.240Z,100425.47
2022-12-22T22:04:10.104Z,100428.38
2022-12-22T22:06:36.850Z,100429.13
2022-12-22T22:09:05.144Z,100435.91
2022-12-22T22:11:31.904Z,100431.47
2022-12-22T22:13:58.530Z,100430.69
2022-12-22T22:16:25.090Z,100441.13
2022-12-22T22:18:51.690Z,100435.91
2022-12-22T22:21:18.235Z,100433.56
2022-12-22T22:23:44.713Z,100445.25
2022-12-22T22:26:11.306Z,100429.91
2022-12-22T22:28:38.074Z,100433.56
2022-12-22T22:31:11.892Z,100445.53
2022-12-22T22:33:38.523Z,100441.38
2022-12-22T22:36:06.879Z,100446.09
2022-12-22T22:38:33.457Z,100448.44
2022-12-22T22:41:00.326Z,100447.63
2022-12-22T22:43:26.764Z,100448.44
2022-12-22T22:45:53.238Z,100450.75
2022-12-22T22:48:21.556Z,100451.53
2022-12-22T22:50:48.842Z,100449.97
2022-12-22T22:53:15.390Z,100444.75
2022-12-22T22:55:42.206Z,100448.44
2022-12-22T22:58:11.477Z,100444.28
2022-12-22T23:00:38.955Z,100446.88
2022-12-22T23:03:05.845Z,100449.47
2022-12-22T23:05:32.634Z,100445.84
2022-12-22T23:07:59.107Z,100455.19
2022-12-22T23:10:25.677Z,100448.44
2022-12-22T23:12:52.178Z,100448.44
2022-12-22T23:15:18.804Z,100443.22
2022-12-22T23:17:45.228Z,100439.56
2022-12-22T23:20:11.835Z,100433.84
2022-12-22T23:22:38.255Z,100438.00
2022-12-22T23:25:05.057Z,100427.28
2022-12-22T23:27:31.493Z,100438.50
2022-12-22T23:29:57.946Z,100437.72
2022-12-22T23:32:24.848Z,100436.66
2022-12-22T23:34:51.314Z,100432.50
2022-12-22T23:37:19.659Z,100428.38
2022-12-22T23:39:46.805Z,100435.91
2022-12-22T23:42:13.317Z,100435.91
2022-12-22T23:44:39.825Z,100447.84
2022-12-22T23:47:06.431Z,100447.84
2022-12-22T23:49:32.899Z,100441.31
2022-12-22T23:51:59.379Z,100449.91
2022-12-22T23:54:26.011Z,100444.22
2022-12-22T23:56:52.734Z,100451.53
2022-12-22T23:59:19.346Z,100462.44
